createdAt,value
2023-04-30T00:01:02.382Z,12.44
2023-04-30T00:03:31.290Z,12.41
2023-04-30T00:06:00.120Z,12.40
2023-04-30T00:08:30.016Z,12.41
2023-04-30T00:11:00.037Z,12.42
2023-04-30T00:13:28.652Z,12.42
2023-04-30T00:15:57.328Z,12.40
2023-04-30T00:18:26.018Z,12.39
2023-04-30T00:20:54.575Z,12.41
2023-04-30T00:23:23.270Z,12.40
2023-04-30T00:25:51.860Z,12.41
2023-04-30T00:28:21.996Z,12.41
2023-04-30T00:30:50.654Z,12.39
2023-04-30T00:33:19.272Z,12.37
2023-04-30T00:35:47.980Z,12.33
2023-04-30T00:38:16.534Z,12.31
2023-04-30T00:40:45.725Z,12.26
2023-04-30T00:43:14.319Z,12.25
2023-04-30T00:45:44.256Z,12.24
2023-04-30T00:48:12.914Z,12.23
2023-04-30T00:50:42.735Z,12.22
2023-04-30T00:53:11.798Z,12.29
2023-04-30T00:55:41.878Z,12.26
2023-04-30T00:58:11.135Z,12.24
2023-04-30T01:00:43.177Z,12.20
2023-04-30T01:03:13.161Z,12.20
2023-04-30T01:05:41.928Z,12.21
2023-04-30T01:08:11.711Z,12.18
2023-04-30T01:10:43.352Z,12.17
2023-04-30T01:13:14.704Z,12.13
2023-04-30T01:15:47.263Z,12.15
2023-04-30T01:18:21.104Z,12.16
2023-04-30T01:20:51.957Z,12.19
2023-04-30T01:23:29.608Z,12.13
2023-04-30T01:26:14.738Z,12.08
2023-04-30T01:28:47.258Z,12.07
2023-04-30T01:31:16.471Z,12.04
2023-04-30T01:33:45.435Z,12.00
2023-04-30T01:36:31.751Z,12.00
2023-04-30T01:39:09.819Z,11.97
2023-04-30T01:41:41.764Z,11.95
2023-04-30T01:44:22.817Z,11.96
2023-04-30T01:46:57.214Z,11.92
2023-04-30T01:49:33.871Z,11.87
2023-04-30T01:52:10.875Z,11.86
2023-04-30T01:54:47.146Z,11.83
2023-04-30T01:57:19.789Z,11.80
2023-04-30T01:59:49.810Z,11.87
2023-04-30T02:02:18.470Z,11.79
2023-04-30T02:04:47.146Z,11.77
2023-04-30T02:07:23.251Z,11.78
2023-04-30T02:09:52.007Z,11.74
2023-04-30T02:12:20.711Z,11.73
2023-04-30T02:14:50.828Z,11.69
2023-04-30T02:17:19.481Z,11.67
2023-04-30T02:19:48.141Z,11.68
2023-04-30T02:22:16.797Z,11.67
2023-04-30T02:24:45.570Z,11.69
2023-04-30T02:27:14.295Z,11.65
2023-04-30T02:29:42.942Z,11.63
2023-04-30T02:32:12.904Z,11.65
2023-04-30T02:34:41.562Z,11.58
2023-04-30T02:37:10.138Z,11.56
2023-04-30T02:39:38.791Z,11.58
2023-04-30T02:42:07.553Z,11.56
2023-04-30T02:44:36.354Z,11.56
2023-04-30T02:47:04.911Z,11.53
2023-04-30T02:49:34.864Z,11.58
2023-04-30T02:52:03.459Z,11.54
2023-04-30T02:54:32.059Z,11.48
2023-04-30T02:57:00.737Z,11.48
2023-04-30T02:59:29.299Z,11.48
2023-04-30T03:01:57.931Z,11.47
2023-04-30T03:04:26.977Z,11.46
2023-04-30T03:06:56.946Z,11.44
2023-04-30T03:09:25.650Z,11.48
2023-04-30T03:11:54.248Z,11.48
2023-04-30T03:14:23.620Z,11.43
2023-04-30T03:16:52.261Z,11.38
2023-04-30T03:19:25.023Z,11.31
2023-04-30T03:21:53.761Z,11.32
2023-04-30T03:24:25.090Z,11.30
2023-04-30T03:26:53.774Z,11.31
2023-04-30T03:29:22.343Z,11.32
2023-04-30T03:31:51.415Z,11.29
2023-04-30T03:34:20.101Z,11.31
2023-04-30T03:36:48.716Z,11.27
2023-04-30T03:39:17.294Z,11.32
2023-04-30T03:41:47.227Z,11.32
2023-04-30T03:44:16.274Z,11.28
2023-04-30T03:46:45.216Z,11.26
2023-04-30T03:49:14.020Z,11.25
2023-04-30T03:51:42.677Z,11.26
2023-04-30T03:54:11.327Z,11.25
2023-04-30T03:56:41.105Z,11.29
2023-04-30T03:59:11.115Z,11.28
2023-04-30T04:01:39.801Z,11.25
2023-04-30T04:04:08.608Z,11.25
2023-04-30T04:06:37.276Z,11.20
2023-04-30T04:09:06.459Z,11.16
2023-04-30T04:11:35.191Z,11.18
2023-04-30T04:14:03.915Z,11.22
2023-04-30T04:16:33.934Z,11.26
2023-04-30T04:19:02.541Z,11.28
2023-04-30T04:21:31.609Z,11.25
2023-04-30T04:24:00.261Z,11.22
2023-04-30T04:26:28.891Z,11.19
2023-04-30T04:28:57.538Z,11.17
2023-04-30T04:31:26.789Z,11.18
2023-04-30T04:33:58.686Z,11.17
2023-04-30T04:36:28.606Z,11.14
2023-04-30T04:38:57.705Z,11.14
2023-04-30T04:41:26.685Z,11.13
2023-04-30T04:43:56.426Z,11.15
2023-04-30T04:46:25.839Z,11.18
2023-04-30T04:48:55.828Z,11.20
2023-04-30T04:51:24.647Z,11.20
2023-04-30T04:53:53.315Z,11.22
2023-04-30T04:56:21.961Z,11.22
2023-04-30T04:58:50.614Z,11.26
2023-04-30T05:01:19.216Z,11.31
2023-04-30T05:03:48.905Z,11.32
2023-04-30T05:06:18.982Z,11.33
2023-04-30T05:08:47.624Z,11.30
2023-04-30T05:11:16.640Z,11.35
2023-04-30T05:13:45.250Z,11.35
2023-04-30T05:16:13.913Z,11.40
2023-04-30T05:18:42.613Z,11.38
2023-04-30T05:21:11.252Z,11.44
2023-04-30T05:23:41.267Z,11.44
2023-04-30T05:26:09.868Z,11.50
2023-04-30T05:28:38.538Z,11.50
2023-04-30T05:31:07.161Z,11.48
2023-04-30T05:33:36.966Z,11.55
2023-04-30T05:36:06.209Z,11.63
2023-04-30T05:38:34.829Z,11.69
2023-04-30T05:41:05.157Z,11.66
2023-04-30T05:43:33.784Z,11.66
2023-04-30T05:46:02.441Z,11.73
2023-04-30T05:48:31.356Z,11.70
2023-04-30T05:50:59.911Z,11.78
2023-04-30T05:53:28.602Z,11.77
2023-04-30T05:55:57.321Z,11.86
2023-04-30T05:58:27.516Z,11.94
2023-04-30T06:00:56.167Z,12.12
2023-04-30T06:03:24.827Z,12.13
2023-04-30T06:05:53.633Z,12.13
2023-04-30T06:08:22.293Z,12.19
2023-04-30T06:10:52.884Z,12.21
2023-04-30T06:13:21.535Z,12.31
2023-04-30T06:15:51.495Z,12.42
2023-04-30T06:18:20.350Z,12.55
2023-04-30T06:20:49.092Z,12.71
2023-04-30T06:23:17.686Z,12.74
2023-04-30T06:25:46.300Z,12.72
2023-04-30T06:28:14.931Z,12.82
2023-04-30T06:30:44.791Z,12.84
2023-04-30T06:33:14.734Z,12.92
2023-04-30T06:35:43.329Z,12.94
2023-04-30T06:38:12.075Z,13.10
2023-04-30T06:40:41.024Z,13.17
2023-04-30T06:43:09.726Z,13.25
2023-04-30T06:45:38.609Z,13.27
2023-04-30T06:48:07.344Z,13.28
2023-04-30T06:50:43.809Z,13.39
2023-04-30T06:53:12.555Z,13.29
2023-04-30T06:55:42.436Z,13.34
2023-04-30T06:58:11.106Z,13.32
2023-04-30T07:00:39.792Z,13.58
2023-04-30T07:03:08.522Z,13.64
2023-04-30T07:05:38.661Z,13.60
2023-04-30T07:08:07.842Z,13.71
2023-04-30T07:10:36.715Z,13.74
2023-04-30T07:13:05.409Z,13.85
2023-04-30T07:15:34.146Z,14.19
2023-04-30T07:18:03.902Z,14.43
2023-04-30T07:20:32.610Z,14.63
2023-04-30T07:23:02.647Z,14.82
2023-04-30T07:25:31.344Z,14.95
2023-04-30T07:28:00.169Z,15.26
2023-04-30T07:30:28.832Z,15.47
2023-04-30T07:32:57.587Z,15.83
2023-04-30T07:35:26.227Z,16.03
2023-04-30T07:37:54.836Z,16.26
2023-04-30T07:40:34.992Z,16.45
2023-04-30T07:43:05.142Z,16.57
2023-04-30T07:45:34.740Z,16.78
2023-04-30T07:48:03.559Z,16.95
2023-04-30T07:50:34.032Z,17.05
2023-04-30T07:53:03.314Z,17.22
2023-04-30T07:55:33.324Z,17.30
2023-04-30T07:58:02.469Z,17.46
2023-04-30T08:00:31.769Z,17.59
2023-04-30T08:03:01.223Z,17.44
2023-04-30T08:05:30.093Z,17.25
2023-04-30T08:07:58.766Z,17.46
2023-04-30T08:10:27.670Z,17.74
2023-04-30T08:12:57.610Z,17.45
2023-04-30T08:15:26.739Z,17.30
2023-04-30T08:17:56.272Z,17.49
2023-04-30T08:20:24.934Z,17.29
2023-04-30T08:22:53.580Z,17.05
2023-04-30T08:25:22.242Z,16.76
2023-04-30T08:27:50.879Z,17.22
2023-04-30T08:30:20.826Z,17.42
2023-04-30T08:32:49.939Z,17.25
2023-04-30T08:35:18.673Z,17.23
2023-04-30T08:37:47.327Z,16.73
2023-04-30T08:40:16.562Z,16.53
2023-04-30T08:42:48.222Z,16.25
2023-04-30T08:45:16.929Z,16.24
2023-04-30T08:47:46.976Z,16.20
2023-04-30T08:50:15.597Z,16.24
2023-04-30T08:52:45.049Z,16.32
2023-04-30T08:55:13.743Z,16.34
2023-04-30T08:57:42.393Z,16.27
2023-04-30T09:00:12.277Z,16.19
2023-04-30T09:02:42.003Z,16.09
2023-04-30T09:05:13.645Z,15.97
2023-04-30T09:07:48.911Z,15.92
2023-04-30T09:10:24.727Z,15.81
2023-04-30T09:13:01.340Z,15.82
2023-04-30T09:15:30.393Z,15.84
2023-04-30T09:18:14.382Z,15.68
2023-04-30T09:20:57.525Z,15.74
2023-04-30T09:23:26.641Z,15.87
2023-04-30T09:25:55.724Z,15.84
2023-04-30T09:28:26.669Z,15.95
2023-04-30T09:30:57.430Z,15.85
2023-04-30T09:33:27.964Z,15.78
2023-04-30T09:35:57.872Z,15.81
2023-04-30T09:38:28.031Z,15.74
2023-04-30T09:40:57.165Z,15.70
2023-04-30T09:43:26.244Z,15.69
2023-04-30T09:45:56.056Z,15.72
2023-04-30T09:48:27.164Z,15.78
2023-04-30T09:50:55.817Z,15.62
2023-04-30T09:53:25.846Z,15.71
2023-04-30T09:55:55.722Z,15.83
2023-04-30T09:58:28.924Z,16.00
2023-04-30T10:01:00.664Z,16.05
2023-04-30T10:03:29.621Z,15.98
2023-04-30T10:05:58.458Z,15.93
2023-04-30T10:08:32.719Z,15.99
2023-04-30T10:11:04.544Z,16.07
2023-04-30T10:13:34.929Z,16.12
2023-04-30T10:16:09.448Z,16.33
2023-04-30T10:18:41.049Z,16.76
2023-04-30T10:21:12.614Z,16.94
2023-04-30T10:23:43.973Z,16.78
2023-04-30T10:26:13.308Z,16.94
2023-04-30T10:28:42.027Z,17.02
2023-04-30T10:31:11.500Z,17.11
2023-04-30T10:33:56.808Z,17.10
2023-04-30T10:36:30.786Z,16.94
2023-04-30T10:39:01.106Z,16.91
2023-04-30T10:41:29.936Z,16.91
2023-04-30T10:44:01.799Z,16.48
2023-04-30T10:46:30.859Z,16.53
2023-04-30T10:49:00.226Z,16.65
2023-04-30T10:51:47.383Z,16.61
2023-04-30T10:54:20.906Z,16.44
2023-04-30T10:56:49.545Z,16.59
2023-04-30T10:59:18.229Z,16.39
2023-04-30T11:01:57.009Z,16.50
2023-04-30T11:04:26.438Z,16.37
2023-04-30T11:07:10.208Z,16.39
2023-04-30T11:09:42.094Z,16.38
2023-04-30T11:12:15.228Z,16.41
2023-04-30T11:14:46.332Z,16.43
2023-04-30T11:17:23.400Z,16.48
2023-04-30T11:19:53.846Z,16.47
2023-04-30T11:22:24.639Z,16.64
2023-04-30T11:25:07.227Z,16.58
2023-04-30T11:27:36.740Z,16.64
2023-04-30T11:30:11.696Z,16.48
2023-04-30T11:32:41.147Z,16.49
2023-04-30T11:35:10.741Z,16.54
2023-04-30T11:37:40.999Z,16.73
2023-04-30T11:40:12.639Z,16.60
2023-04-30T11:42:45.820Z,16.69
2023-04-30T11:45:17.588Z,16.73
2023-04-30T11:47:47.993Z,16.74
2023-04-30T11:50:18.002Z,16.78
2023-04-30T11:52:51.012Z,16.73
2023-04-30T11:55:22.704Z,16.79
2023-04-30T11:57:53.105Z,16.84
2023-04-30T12:00:23.532Z,16.68
2023-04-30T12:02:52.366Z,16.65
2023-04-30T12:05:22.064Z,16.83
2023-04-30T12:07:52.079Z,16.79
2023-04-30T12:10:22.550Z,16.75
2023-04-30T12:12:53.137Z,16.77
2023-04-30T12:15:27.230Z,16.81
2023-04-30T12:17:58.117Z,16.81
2023-04-30T12:20:29.068Z,16.73
2023-04-30T12:22:58.086Z,16.77
2023-04-30T12:25:29.945Z,16.95
2023-04-30T12:28:00.339Z,16.97
2023-04-30T12:30:29.163Z,17.00
2023-04-30T12:33:00.058Z,17.01
2023-04-30T12:35:30.862Z,17.12
2023-04-30T12:38:04.190Z,17.10
2023-04-30T12:40:34.966Z,16.97
2023-04-30T12:43:04.957Z,17.01
2023-04-30T12:45:48.285Z,17.09
2023-04-30T12:48:17.237Z,17.08
2023-04-30T12:50:50.153Z,17.19
2023-04-30T12:53:19.372Z,17.43
2023-04-30T12:56:12.085Z,17.50
2023-04-30T12:58:41.734Z,17.60
2023-04-30T13:01:12.635Z,17.59
2023-04-30T13:03:42.286Z,17.51
2023-04-30T13:06:11.383Z,17.46
2023-04-30T13:08:53.967Z,17.49
2023-04-30T13:11:28.393Z,17.50
2023-04-30T13:13:57.067Z,17.44
2023-04-30T13:16:26.275Z,17.39
2023-04-30T13:18:55.483Z,17.27
2023-04-30T13:21:24.856Z,17.13
2023-04-30T13:23:54.887Z,17.29
2023-04-30T13:26:26.318Z,17.42
2023-04-30T13:28:56.466Z,17.21
2023-04-30T13:31:25.265Z,17.32
2023-04-30T13:33:54.673Z,17.36
2023-04-30T13:36:23.391Z,17.34
2023-04-30T13:38:51.968Z,17.47
2023-04-30T13:41:21.396Z,17.46
2023-04-30T13:43:50.058Z,17.40
2023-04-30T13:46:20.119Z,17.17
2023-04-30T13:48:51.667Z,17.27
2023-04-30T13:51:20.343Z,17.27
2023-04-30T13:53:48.989Z,17.22
2023-04-30T13:56:17.649Z,17.41
2023-04-30T13:58:46.781Z,17.60
2023-04-30T14:01:15.558Z,17.68
2023-04-30T14:03:46.598Z,17.62
2023-04-30T14:06:15.729Z,17.56
2023-04-30T14:08:44.430Z,17.59
2023-04-30T14:11:13.047Z,17.36
2023-04-30T14:13:41.759Z,17.35
2023-04-30T14:16:10.512Z,17.37
2023-04-30T14:18:39.168Z,17.40
2023-04-30T14:21:09.180Z,17.49
2023-04-30T14:23:38.718Z,17.29
2023-04-30T14:26:07.305Z,17.18
2023-04-30T14:28:35.916Z,17.27
2023-04-30T14:31:04.634Z,17.38
2023-04-30T14:33:33.270Z,17.54
2023-04-30T14:36:01.902Z,17.46
2023-04-30T14:38:31.898Z,17.41
2023-04-30T14:41:00.635Z,17.41
2023-04-30T14:43:29.271Z,17.33
2023-04-30T14:45:58.149Z,17.35
2023-04-30T14:48:26.942Z,17.39
2023-04-30T14:50:55.704Z,17.30
2023-04-30T14:53:24.329Z,17.40
2023-04-30T14:55:54.374Z,17.43
2023-04-30T14:58:23.325Z,17.46
2023-04-30T15:00:52.700Z,17.36
2023-04-30T15:03:21.964Z,17.41
2023-04-30T15:05:51.646Z,17.45
2023-04-30T15:08:20.307Z,17.47
2023-04-30T15:10:49.063Z,17.39
2023-04-30T15:13:19.102Z,17.42
2023-04-30T15:15:49.545Z,17.32
2023-04-30T15:18:18.267Z,17.19
2023-04-30T15:20:47.102Z,17.31
2023-04-30T15:23:15.718Z,17.18
2023-04-30T15:25:44.644Z,17.28
2023-04-30T15:28:13.394Z,17.14
2023-04-30T15:30:43.454Z,17.24
2023-04-30T15:33:12.646Z,17.02
2023-04-30T15:35:41.503Z,16.95
2023-04-30T15:38:10.159Z,17.10
2023-04-30T15:40:38.840Z,17.24
2023-04-30T15:43:07.885Z,17.32
2023-04-30T15:45:36.517Z,17.42
2023-04-30T15:48:06.825Z,17.37
2023-04-30T15:50:35.598Z,17.40
2023-04-30T15:53:04.227Z,17.36
2023-04-30T15:55:32.810Z,17.44
2023-04-30T15:58:01.568Z,17.48
2023-04-30T16:00:30.175Z,17.48
2023-04-30T16:02:58.849Z,17.26
2023-04-30T16:05:29.737Z,17.07
2023-04-30T16:07:58.454Z,17.13
2023-04-30T16:10:27.126Z,17.07
2023-04-30T16:12:55.861Z,17.03
2023-04-30T16:15:24.992Z,17.10
2023-04-30T16:17:53.601Z,17.09
2023-04-30T16:20:22.617Z,17.04
2023-04-30T16:22:52.690Z,16.96
2023-04-30T16:25:21.786Z,17.14
2023-04-30T16:27:51.549Z,17.04
2023-04-30T16:30:20.376Z,17.06
2023-04-30T16:32:49.160Z,16.91
2023-04-30T16:35:17.862Z,16.83
2023-04-30T16:37:46.547Z,16.82
2023-04-30T16:40:16.711Z,16.84
2023-04-30T16:42:45.372Z,16.80
2023-04-30T16:45:14.072Z,16.87
2023-04-30T16:47:42.754Z,16.76
2023-04-30T16:50:11.700Z,16.89
2023-04-30T16:52:40.419Z,16.82
2023-04-30T16:55:10.277Z,16.72
2023-04-30T16:57:40.254Z,16.85
2023-04-30T17:00:12.469Z,16.69
2023-04-30T17:02:42.479Z,16.69
2023-04-30T17:05:11.618Z,16.72
2023-04-30T17:07:40.256Z,16.68
2023-04-30T17:10:10.188Z,16.70
2023-04-30T17:12:40.528Z,16.59
2023-04-30T17:15:09.829Z,16.49
2023-04-30T17:17:38.523Z,16.49
2023-04-30T17:20:08.136Z,16.46
2023-04-30T17:22:38.179Z,16.45
2023-04-30T17:25:07.283Z,16.43
2023-04-30T17:27:35.944Z,16.44
2023-04-30T17:30:08.107Z,16.39
2023-04-30T17:32:36.719Z,16.43
2023-04-30T17:35:06.873Z,16.29
2023-04-30T17:37:36.234Z,16.19
2023-04-30T17:40:05.521Z,16.27
2023-04-30T17:42:34.233Z,16.28
2023-04-30T17:45:02.887Z,16.33
2023-04-30T17:47:32.836Z,16.20
2023-04-30T17:50:04.580Z,16.15
2023-04-30T17:52:38.180Z,16.05
2023-04-30T17:55:08.242Z,16.02
2023-04-30T17:57:36.971Z,16.12
2023-04-30T18:00:07.134Z,15.99
2023-04-30T18:02:37.856Z,15.86
2023-04-30T18:05:07.034Z,15.78
2023-04-30T18:07:35.642Z,15.79
2023-04-30T18:10:04.292Z,15.82
2023-04-30T18:12:32.929Z,15.74
2023-04-30T18:15:01.933Z,15.67
2023-04-30T18:17:30.604Z,15.66
2023-04-30T18:20:02.334Z,15.63
2023-04-30T18:22:31.061Z,15.57
2023-04-30T18:24:59.690Z,15.51
2023-04-30T18:27:29.140Z,15.46
2023-04-30T18:29:58.033Z,15.42
2023-04-30T18:32:27.368Z,15.40
2023-04-30T18:34:56.303Z,15.35
2023-04-30T18:37:26.358Z,15.39
2023-04-30T18:39:55.489Z,15.27
2023-04-30T18:42:25.094Z,15.21
2023-04-30T18:44:54.291Z,15.18
2023-04-30T18:47:22.977Z,15.08
2023-04-30T18:49:51.611Z,15.10
2023-04-30T18:52:20.440Z,15.02
2023-04-30T18:54:50.892Z,14.97
2023-04-30T18:57:19.812Z,14.94
2023-04-30T18:59:49.207Z,14.80
2023-04-30T19:02:17.919Z,14.67
2023-04-30T19:04:46.791Z,14.59
2023-04-30T19:07:15.575Z,14.55
2023-04-30T19:09:45.225Z,14.42
2023-04-30T19:12:16.440Z,14.32
2023-04-30T19:14:45.794Z,14.31
2023-04-30T19:17:14.819Z,14.26
2023-04-30T19:19:43.989Z,14.07
2023-04-30T19:22:12.846Z,14.04
2023-04-30T19:24:41.576Z,13.95
2023-04-30T19:27:10.826Z,13.87
2023-04-30T19:29:40.909Z,13.85
2023-04-30T19:32:10.027Z,13.84
2023-04-30T19:34:39.007Z,13.79
2023-04-30T19:37:07.763Z,13.71
2023-04-30T19:39:36.600Z,13.71
2023-04-30T19:42:06.010Z,13.64
2023-04-30T19:44:34.707Z,13.62
2023-04-30T19:47:05.325Z,13.52
2023-04-30T19:49:35.257Z,13.51
2023-04-30T19:52:04.553Z,13.46
2023-04-30T19:54:33.307Z,13.44
2023-04-30T19:57:02.089Z,13.37
2023-04-30T19:59:31.427Z,13.24
2023-04-30T20:02:00.627Z,13.19
2023-04-30T20:04:30.872Z,13.09
2023-04-30T20:07:01.012Z,13.02
2023-04-30T20:09:29.627Z,12.99
2023-04-30T20:11:58.247Z,12.98
2023-04-30T20:14:27.978Z,12.98
2023-04-30T20:16:57.565Z,12.93
2023-04-30T20:19:26.549Z,12.88
2023-04-30T20:21:56.643Z,12.80
2023-04-30T20:24:25.409Z,12.70
2023-04-30T20:26:54.247Z,12.58
2023-04-30T20:29:23.465Z,12.51
2023-04-30T20:31:52.391Z,12.51
2023-04-30T20:34:21.459Z,12.46
2023-04-30T20:36:50.475Z,12.43
2023-04-30T20:39:20.789Z,12.40
2023-04-30T20:41:49.614Z,12.36
2023-04-30T20:44:18.296Z,12.25
2023-04-30T20:46:47.181Z,12.24
2023-04-30T20:49:17.215Z,12.23
2023-04-30T20:51:46.260Z,12.20
2023-04-30T20:54:14.931Z,12.18
2023-04-30T20:56:47.089Z,12.17
2023-04-30T20:59:16.431Z,12.20
2023-04-30T21:01:45.311Z,12.16
2023-04-30T21:04:14.066Z,12.11
2023-04-30T21:06:42.965Z,12.07
2023-04-30T21:09:12.410Z,12.05
2023-04-30T21:11:41.648Z,11.98
2023-04-30T21:14:11.720Z,11.96
2023-04-30T21:16:41.681Z,11.93
2023-04-30T21:19:11.123Z,11.92
2023-04-30T21:21:39.913Z,11.86
2023-04-30T21:24:08.821Z,11.81
2023-04-30T21:26:37.459Z,11.78
2023-04-30T21:29:06.108Z,11.78
2023-04-30T21:31:37.112Z,11.75
2023-04-30T21:34:06.098Z,11.74
2023-04-30T21:36:35.274Z,11.68
2023-04-30T21:39:04.112Z,11.68
2023-04-30T21:41:32.961Z,11.65
2023-04-30T21:44:01.634Z,11.67
2023-04-30T21:46:30.377Z,11.72
2023-04-30T21:49:00.377Z,11.64
2023-04-30T21:51:29.482Z,11.59
2023-04-30T21:53:58.114Z,11.55
2023-04-30T21:56:26.804Z,11.52
2023-04-30T21:58:55.388Z,11.53
2023-04-30T22:01:27.423Z,11.51
2023-04-30T22:03:56.095Z,11.49
2023-04-30T22:06:26.261Z,11.45
2023-04-30T22:08:54.929Z,11.39
2023-04-30T22:11:25.230Z,11.35
2023-04-30T22:13:54.021Z,11.34
2023-04-30T22:16:22.859Z,11.35
2023-04-30T22:18:51.522Z,11.30
2023-04-30T22:21:20.175Z,11.30
2023-04-30T22:23:50.222Z,11.23
2023-04-30T22:26:18.867Z,11.17
2023-04-30T22:28:47.659Z,11.14
2023-04-30T22:31:16.394Z,11.09
2023-04-30T22:33:46.021Z,11.08
2023-04-30T22:36:14.590Z,11.15
2023-04-30T22:38:43.427Z,11.08
2023-04-30T22:41:13.570Z,11.09
2023-04-30T22:43:42.312Z,11.05
2023-04-30T22:46:10.941Z,11.06
2023-04-30T22:48:39.572Z,11.06
2023-04-30T22:51:08.475Z,11.03
2023-04-30T22:53:37.100Z,11.01
2023-04-30T22:56:06.169Z,11.05
2023-04-30T22:58:36.128Z,10.98
2023-04-30T23:01:04.894Z,10.96
2023-04-30T23:03:33.749Z,10.95
2023-04-30T23:06:02.809Z,10.98
2023-04-30T23:08:32.268Z,10.93
2023-04-30T23:11:01.562Z,10.94
2023-04-30T23:13:30.260Z,10.82
2023-04-30T23:16:01.235Z,10.84
2023-04-30T23:18:29.860Z,10.83
2023-04-30T23:20:59.685Z,10.78
2023-04-30T23:23:28.639Z,10.74
2023-04-30T23:25:57.581Z,10.73
2023-04-30T23:28:26.347Z,10.68
2023-04-30T23:30:55.648Z,10.70
2023-04-30T23:33:25.847Z,10.66
2023-04-30T23:35:54.568Z,10.61
2023-04-30T23:38:23.516Z,10.63
2023-04-30T23:40:52.157Z,10.60
2023-04-30T23:43:20.759Z,10.61
2023-04-30T23:45:49.391Z,10.57
2023-04-30T23:48:18.043Z,10.49
2023-04-30T23:50:47.959Z,10.48
2023-04-30T23:53:17.293Z,10.49
2023-04-30T23:55:46.604Z,10.51
2023-04-30T23:58:15.314Z,10.45
